createdAt,value
2018-12-19T00:01:29.592Z,5.92
2018-12-19T00:03:58.427Z,5.91
2018-12-19T00:06:28.992Z,5.91
2018-12-19T00:09:03.144Z,5.91
2018-12-19T00:11:26.645Z,5.89
2018-12-19T00:13:55.425Z,5.88
2018-12-19T00:16:24.851Z,5.87
2018-12-19T00:18:53.684Z,5.87
2018-12-19T00:21:22.555Z,5.87
2018-12-19T00:23:51.344Z,5.86
2018-12-19T00:26:20.147Z,5.87
2018-12-19T00:28:49.875Z,5.88
2018-12-19T00:31:18.716Z,5.86
2018-12-19T00:33:47.518Z,5.87
2018-12-19T00:36:16.296Z,5.86
2018-12-19T00:38:45.086Z,5.86
2018-12-19T00:41:13.876Z,5.86
2018-12-19T00:43:43.581Z,5.88
2018-12-19T00:46:12.390Z,5.88
2018-12-19T00:48:41.666Z,5.88
2018-12-19T00:51:10.446Z,5.90
2018-12-19T00:53:39.247Z,5.89
2018-12-19T00:56:08.034Z,5.90
2018-12-19T00:58:36.844Z,5.92
2018-12-19T01:01:05.645Z,5.94
2018-12-19T01:03:34.440Z,5.93
2018-12-19T01:06:03.986Z,5.93
2018-12-19T01:08:36.295Z,5.94
2018-12-19T01:11:05.097Z,5.95
2018-12-19T01:13:33.890Z,5.94
2018-12-19T01:16:02.683Z,5.96
2018-12-19T01:18:31.506Z,5.93
2018-12-19T01:21:00.276Z,5.92
2018-12-19T01:23:29.125Z,5.94
2018-12-19T01:25:57.899Z,5.93
2018-12-19T01:28:26.695Z,5.94
2018-12-19T01:30:55.476Z,5.96
2018-12-19T01:33:24.323Z,5.97
2018-12-19T01:35:53.116Z,5.98
2018-12-19T01:38:21.980Z,6.00
2018-12-19T01:40:50.762Z,6.00
2018-12-19T01:43:19.563Z,6.02
2018-12-19T01:45:48.356Z,6.05
2018-12-19T01:48:17.152Z,6.08
2018-12-19T01:50:45.964Z,6.10
2018-12-19T01:53:14.791Z,6.11
2018-12-19T01:55:43.595Z,6.13
2018-12-19T01:58:12.396Z,6.14
2018-12-19T02:00:41.214Z,6.17
2018-12-19T02:03:09.983Z,6.18
2018-12-19T02:05:38.853Z,6.17
2018-12-19T02:08:07.628Z,6.17
2018-12-19T02:10:36.429Z,6.17
2018-12-19T02:13:05.219Z,6.17
2018-12-19T02:15:34.048Z,6.19
2018-12-19T02:18:02.839Z,6.21
2018-12-19T02:20:31.661Z,6.21
2018-12-19T02:23:00.446Z,6.22
2018-12-19T02:25:29.249Z,6.23
2018-12-19T02:27:58.077Z,6.25
2018-12-19T02:30:27.403Z,6.27
2018-12-19T02:32:56.203Z,6.27
2018-12-19T02:35:24.974Z,6.30
2018-12-19T02:37:53.750Z,6.31
2018-12-19T02:40:23.415Z,6.32
2018-12-19T02:42:52.844Z,6.34
2018-12-19T02:45:21.693Z,6.36
2018-12-19T02:47:50.477Z,6.40
2018-12-19T02:50:19.261Z,6.41
2018-12-19T02:52:49.708Z,6.44
2018-12-19T02:55:18.532Z,6.48
2018-12-19T02:57:47.307Z,6.49
2018-12-19T03:00:16.086Z,6.50
2018-12-19T03:02:45.844Z,6.52
2018-12-19T03:05:14.630Z,6.54
2018-12-19T03:07:43.402Z,6.54
2018-12-19T03:10:12.219Z,6.56
2018-12-19T03:12:41.017Z,6.57
2018-12-19T03:15:09.807Z,6.57
2018-12-19T03:17:38.576Z,6.56
2018-12-19T03:20:07.372Z,6.58
2018-12-19T03:22:37.603Z,6.59
2018-12-19T03:25:06.362Z,6.59
2018-12-19T03:27:35.234Z,6.60
2018-12-19T03:30:04.733Z,6.62
2018-12-19T03:32:33.519Z,6.64
2018-12-19T03:35:02.312Z,6.66
2018-12-19T03:37:31.104Z,6.69
2018-12-19T03:39:59.879Z,6.71
2018-12-19T03:42:28.691Z,6.72
2018-12-19T03:44:57.477Z,6.73
2018-12-19T03:47:26.345Z,6.75
2018-12-19T03:49:56.050Z,6.78
2018-12-19T03:52:24.820Z,6.80
2018-12-19T03:54:54.601Z,6.79
2018-12-19T03:57:23.403Z,6.81
2018-12-19T03:59:52.188Z,6.83
2018-12-19T04:02:21.038Z,6.81
2018-12-19T04:04:49.884Z,6.82
2018-12-19T04:07:18.668Z,6.84
2018-12-19T04:09:48.448Z,6.85
2018-12-19T04:12:17.238Z,6.85
2018-12-19T04:14:46.007Z,6.85
2018-12-19T04:17:14.798Z,6.84
2018-12-19T04:19:43.594Z,6.83
2018-12-19T04:22:12.871Z,6.81
2018-12-19T04:24:41.660Z,6.81
2018-12-19T04:27:10.496Z,6.80
2018-12-19T04:29:39.379Z,6.79
2018-12-19T04:32:08.171Z,6.78
2018-12-19T04:34:36.955Z,6.77
2018-12-19T04:37:05.726Z,6.78
2018-12-19T04:39:35.044Z,6.76
2018-12-19T04:42:04.518Z,6.79
2018-12-19T04:44:33.708Z,6.79
2018-12-19T04:47:02.513Z,6.79
2018-12-19T04:49:31.618Z,6.81
2018-12-19T04:52:00.419Z,6.84
2018-12-19T04:54:29.285Z,6.86
2018-12-19T04:56:58.053Z,6.84
2018-12-19T04:59:26.836Z,6.87
2018-12-19T05:01:55.627Z,6.86
2018-12-19T05:04:24.415Z,6.85
2018-12-19T05:06:53.207Z,6.84
2018-12-19T05:09:22.014Z,6.83
2018-12-19T05:11:50.819Z,6.83
2018-12-19T05:14:21.350Z,6.87
2018-12-19T05:16:50.115Z,6.87
2018-12-19T05:19:18.907Z,6.88
2018-12-19T05:21:47.720Z,6.86
2018-12-19T05:24:16.653Z,6.86
2018-12-19T05:26:45.443Z,6.85
2018-12-19T05:29:14.903Z,6.85
2018-12-19T05:31:44.303Z,6.83
2018-12-19T05:34:13.083Z,6.85
2018-12-19T05:36:41.957Z,6.85
2018-12-19T05:39:11.711Z,6.84
2018-12-19T05:41:40.922Z,6.84
2018-12-19T05:44:09.698Z,6.78
2018-12-19T05:46:38.519Z,6.82
2018-12-19T05:49:07.310Z,6.82
2018-12-19T05:51:36.140Z,6.82
2018-12-19T05:54:04.949Z,6.82
2018-12-19T05:56:33.760Z,6.84
2018-12-19T05:59:02.554Z,6.86
2018-12-19T06:01:31.338Z,6.88
2018-12-19T06:04:00.141Z,6.87
2018-12-19T06:06:29.682Z,6.86
2018-12-19T06:08:58.440Z,6.86
2018-12-19T06:11:27.320Z,6.86
2018-12-19T06:13:56.121Z,6.88
2018-12-19T06:16:27.915Z,6.88
2018-12-19T06:18:56.818Z,6.90
2018-12-19T06:21:25.963Z,6.91
2018-12-19T06:23:54.738Z,6.91
2018-12-19T06:26:23.549Z,6.90
2018-12-19T06:28:57.895Z,6.91
2018-12-19T06:31:26.683Z,6.92
2018-12-19T06:33:55.482Z,6.93
2018-12-19T06:36:24.328Z,6.95
2018-12-19T06:38:53.222Z,6.98
2018-12-19T06:41:22.011Z,6.99
2018-12-19T06:43:51.865Z,7.02
2018-12-19T06:46:20.664Z,7.05
2018-12-19T06:48:49.444Z,7.08
2018-12-19T06:51:19.054Z,7.11
2018-12-19T06:53:47.225Z,7.12
2018-12-19T06:56:16.006Z,7.15
2018-12-19T06:58:44.795Z,7.16
2018-12-19T07:01:13.578Z,7.18
2018-12-19T07:03:42.380Z,7.20
2018-12-19T07:06:11.157Z,7.21
2018-12-19T07:08:41.401Z,7.23
2018-12-19T07:11:08.739Z,7.24
2018-12-19T07:13:37.520Z,7.27
2018-12-19T07:16:06.320Z,7.27
2018-12-19T07:18:35.118Z,7.29
2018-12-19T07:21:03.885Z,7.29
2018-12-19T07:23:32.688Z,7.32
2018-12-19T07:26:01.466Z,7.33
2018-12-19T07:28:30.242Z,7.36
2018-12-19T07:30:59.045Z,7.39
2018-12-19T07:33:27.843Z,7.41
2018-12-19T07:35:56.676Z,7.43
2018-12-19T07:38:25.477Z,7.45
2018-12-19T07:40:54.285Z,7.47
2018-12-19T07:43:23.119Z,7.48
2018-12-19T07:45:51.918Z,7.49
2018-12-19T07:48:20.720Z,7.53
2018-12-19T07:50:49.524Z,7.55
2018-12-19T07:53:18.369Z,7.58
2018-12-19T07:55:47.166Z,7.59
2018-12-19T07:58:16.047Z,7.61
2018-12-19T08:00:44.883Z,7.65
2018-12-19T08:03:13.732Z,7.68
2018-12-19T08:05:42.513Z,7.69
2018-12-19T08:08:11.307Z,7.72
2018-12-19T08:10:40.101Z,7.74
2018-12-19T08:13:08.988Z,7.75
2018-12-19T08:15:37.788Z,7.78
2018-12-19T08:18:06.585Z,7.79
2018-12-19T08:20:35.377Z,7.83
2018-12-19T08:23:05.026Z,7.84
2018-12-19T08:25:33.895Z,7.86
2018-12-19T08:28:02.727Z,7.88
2018-12-19T08:30:31.500Z,7.90
2018-12-19T08:33:00.299Z,7.92
2018-12-19T08:35:29.093Z,7.95
2018-12-19T08:37:57.882Z,7.97
2018-12-19T08:40:26.731Z,7.98
2018-12-19T08:42:55.540Z,7.99
2018-12-19T08:45:24.368Z,8.01
2018-12-19T08:47:53.199Z,8.04
2018-12-19T08:50:21.975Z,8.09
2018-12-19T08:52:50.824Z,8.18
2018-12-19T08:55:19.607Z,8.26
2018-12-19T08:57:48.448Z,8.32
2018-12-19T09:00:17.348Z,8.36
2018-12-19T09:02:46.271Z,8.41
2018-12-19T09:05:15.178Z,8.45
2018-12-19T09:07:43.967Z,8.49
2018-12-19T09:10:12.805Z,8.47
2018-12-19T09:12:41.648Z,8.43
2018-12-19T09:15:10.437Z,8.44
2018-12-19T09:17:39.238Z,8.45
2018-12-19T09:20:08.035Z,8.51
2018-12-19T09:22:36.835Z,8.54
2018-12-19T09:25:05.652Z,8.56
2018-12-19T09:27:34.474Z,8.59
2018-12-19T09:30:03.315Z,8.63
2018-12-19T09:32:32.205Z,8.66
2018-12-19T09:35:01.059Z,8.71
2018-12-19T09:37:30.356Z,8.76
2018-12-19T09:39:59.188Z,8.85
2018-12-19T09:42:28.008Z,8.91
2018-12-19T09:44:56.866Z,8.99
2018-12-19T09:47:25.675Z,9.07
2018-12-19T09:49:54.475Z,9.14
2018-12-19T09:52:23.349Z,9.19
2018-12-19T09:54:52.295Z,9.27
2018-12-19T09:57:21.006Z,9.29
2018-12-19T09:59:49.857Z,9.42
2018-12-19T10:02:18.630Z,9.52
2018-12-19T10:04:47.431Z,9.61
2018-12-19T10:07:16.229Z,9.60
2018-12-19T10:09:45.063Z,9.67
2018-12-19T10:12:13.873Z,9.73
2018-12-19T10:14:42.667Z,9.77
2018-12-19T10:17:11.464Z,9.79
2018-12-19T10:19:40.256Z,9.78
2018-12-19T10:22:09.027Z,9.70
2018-12-19T10:24:43.204Z,9.74
2018-12-19T10:27:16.202Z,9.78
2018-12-19T10:29:45.008Z,9.81
2018-12-19T10:32:13.792Z,9.87
2018-12-19T10:34:43.955Z,9.94
2018-12-19T10:37:12.778Z,9.97
2018-12-19T10:39:41.569Z,9.99
2018-12-19T10:42:10.357Z,9.97
2018-12-19T10:44:39.130Z,9.95
2018-12-19T10:47:07.930Z,9.90
2018-12-19T10:49:36.711Z,9.88
2018-12-19T10:52:05.497Z,9.88
2018-12-19T10:54:34.301Z,9.93
2018-12-19T10:57:03.176Z,10.04
2018-12-19T10:59:32.020Z,10.15
2018-12-19T11:02:00.872Z,10.26
2018-12-19T11:04:29.690Z,10.35
2018-12-19T11:06:58.481Z,10.49
2018-12-19T11:09:27.268Z,10.58
2018-12-19T11:11:56.132Z,10.66
2018-12-19T11:14:24.920Z,10.83
2018-12-19T11:16:53.714Z,10.94
2018-12-19T11:19:22.559Z,11.02
2018-12-19T11:21:51.415Z,11.14
2018-12-19T11:24:20.191Z,11.24
2018-12-19T11:26:49.015Z,11.45
2018-12-19T11:29:17.807Z,11.72
2018-12-19T11:31:46.619Z,11.94
2018-12-19T11:34:15.406Z,12.01
2018-12-19T11:36:44.216Z,11.92
2018-12-19T11:39:13.007Z,11.81
2018-12-19T11:41:41.822Z,11.76
2018-12-19T11:44:10.705Z,11.69
2018-12-19T11:46:39.502Z,11.60
2018-12-19T11:49:08.312Z,11.49
2018-12-19T11:51:37.130Z,11.46
2018-12-19T11:54:05.971Z,11.43
2018-12-19T11:56:34.746Z,11.42
2018-12-19T11:59:03.552Z,11.42
2018-12-19T12:01:32.342Z,11.42
2018-12-19T12:04:01.167Z,11.40
2018-12-19T12:06:29.989Z,11.33
2018-12-19T12:08:58.769Z,11.28
2018-12-19T12:11:27.564Z,11.23
2018-12-19T12:13:56.444Z,11.27
2018-12-19T12:16:25.301Z,11.27
2018-12-19T12:18:54.105Z,11.27
2018-12-19T12:21:23.012Z,11.20
2018-12-19T12:23:51.875Z,11.15
2018-12-19T12:26:21.696Z,11.11
2018-12-19T12:28:50.501Z,11.05
2018-12-19T12:31:19.284Z,11.01
2018-12-19T12:33:48.087Z,11.00
2018-12-19T12:36:16.927Z,10.96
2018-12-19T12:38:45.756Z,10.91
2018-12-19T12:41:14.626Z,10.85
2018-12-19T12:43:43.444Z,10.81
2018-12-19T12:46:12.256Z,10.83
2018-12-19T12:48:41.055Z,10.87
2018-12-19T12:51:09.915Z,10.86
2018-12-19T12:53:38.756Z,10.89
2018-12-19T12:56:07.580Z,10.89
2018-12-19T12:58:36.403Z,10.90
2018-12-19T13:01:05.191Z,10.89
2018-12-19T13:03:34.006Z,10.89
2018-12-19T13:06:02.794Z,10.88
2018-12-19T13:08:31.622Z,10.87
2018-12-19T13:11:00.374Z,10.83
2018-12-19T13:13:29.165Z,10.83
2018-12-19T13:15:57.951Z,10.78
2018-12-19T13:18:26.834Z,10.78
2018-12-19T13:20:55.639Z,10.78
2018-12-19T13:23:24.435Z,10.76
2018-12-19T13:25:53.261Z,10.75
2018-12-19T13:28:23.155Z,10.74
2018-12-19T13:30:51.922Z,10.71
2018-12-19T13:33:20.809Z,10.71
2018-12-19T13:35:49.595Z,10.67
2018-12-19T13:38:18.495Z,10.66
2018-12-19T13:40:47.306Z,10.66
2018-12-19T13:43:16.187Z,10.62
2018-12-19T13:45:44.991Z,10.62
2018-12-19T13:48:13.801Z,10.63
2018-12-19T13:50:42.611Z,10.64
2018-12-19T13:53:11.473Z,10.65
2018-12-19T13:55:40.246Z,10.64
2018-12-19T13:58:09.050Z,10.63
2018-12-19T14:00:37.929Z,10.62
2018-12-19T14:03:06.719Z,10.64
2018-12-19T14:05:35.507Z,10.66
2018-12-19T14:08:04.296Z,10.67
2018-12-19T14:10:33.083Z,10.65
2018-12-19T14:13:01.876Z,10.65
2018-12-19T14:15:30.740Z,10.62
2018-12-19T14:17:59.532Z,10.61
2018-12-19T14:20:28.324Z,10.54
2018-12-19T14:22:57.122Z,10.55
2018-12-19T14:25:25.971Z,10.50
2018-12-19T14:27:54.847Z,10.47
2018-12-19T14:30:23.723Z,10.47
2018-12-19T14:32:52.511Z,10.46
2018-12-19T14:35:21.320Z,10.47
2018-12-19T14:37:50.140Z,10.47
2018-12-19T14:40:19.027Z,10.47
2018-12-19T14:42:47.891Z,10.46
2018-12-19T14:45:16.790Z,10.41
2018-12-19T14:47:45.624Z,10.39
2018-12-19T14:50:14.480Z,10.36
2018-12-19T14:52:43.268Z,10.32
2018-12-19T14:55:12.114Z,10.31
2018-12-19T14:57:40.886Z,10.30
2018-12-19T15:00:10.534Z,10.28
2018-12-19T15:02:39.346Z,10.27
2018-12-19T15:05:08.218Z,10.28
2018-12-19T15:07:37.023Z,10.25
2018-12-19T15:10:07.438Z,10.25
2018-12-19T15:12:36.256Z,10.25
2018-12-19T15:15:06.398Z,10.26
2018-12-19T15:17:35.193Z,10.25
2018-12-19T15:20:04.087Z,10.24
2018-12-19T15:22:32.888Z,10.25
2018-12-19T15:25:01.818Z,10.22
2018-12-19T15:27:30.604Z,10.21
2018-12-19T15:29:59.462Z,10.21
2018-12-19T15:32:28.281Z,10.20
2018-12-19T15:34:57.092Z,10.16
2018-12-19T15:37:25.912Z,10.14
2018-12-19T15:39:54.709Z,10.14
2018-12-19T15:42:23.562Z,10.15
2018-12-19T15:44:52.383Z,10.07
2018-12-19T15:47:21.189Z,10.11
2018-12-19T15:49:50.031Z,10.07
2018-12-19T15:52:18.828Z,10.05
2018-12-19T15:54:47.641Z,10.04
2018-12-19T15:57:16.463Z,10.01
2018-12-19T15:59:45.359Z,9.99
2018-12-19T16:02:14.155Z,9.98
2018-12-19T16:04:42.965Z,9.98
2018-12-19T16:07:11.779Z,9.97
2018-12-19T16:09:40.603Z,9.97
2018-12-19T16:12:09.405Z,9.94
2018-12-19T16:14:38.233Z,9.92
2018-12-19T16:17:07.063Z,9.91
2018-12-19T16:19:35.949Z,9.92
2018-12-19T16:22:04.900Z,9.90
2018-12-19T16:24:33.678Z,9.85
2018-12-19T16:27:02.517Z,9.89
2018-12-19T16:29:31.338Z,9.87
2018-12-19T16:32:00.276Z,9.86
2018-12-19T16:34:30.831Z,9.81
2018-12-19T16:37:00.885Z,9.86
2018-12-19T16:39:29.673Z,9.86
2018-12-19T16:42:03.539Z,9.84
2018-12-19T16:44:33.440Z,9.82
2018-12-19T16:47:02.223Z,9.83
2018-12-19T16:49:31.050Z,9.80
2018-12-19T16:52:00.948Z,9.77
2018-12-19T16:54:29.790Z,9.75
2018-12-19T16:56:58.708Z,9.71
2018-12-19T16:59:28.673Z,9.67
2018-12-19T17:01:57.603Z,9.67
2018-12-19T17:04:26.549Z,9.66
2018-12-19T17:06:55.411Z,9.68
2018-12-19T17:09:24.340Z,9.70
2018-12-19T17:11:53.094Z,9.68
2018-12-19T17:14:22.575Z,9.65
2018-12-19T17:16:51.383Z,9.58
2018-12-19T17:19:20.279Z,9.47
2018-12-19T17:21:49.151Z,9.36
2018-12-19T17:24:18.237Z,9.27
2018-12-19T17:26:47.026Z,9.22
2018-12-19T17:29:15.840Z,9.15
2018-12-19T17:31:44.630Z,9.12
2018-12-19T17:34:13.436Z,9.08
2018-12-19T17:36:42.230Z,9.08
2018-12-19T17:39:11.038Z,9.04
2018-12-19T17:41:39.883Z,9.02
2018-12-19T17:44:08.672Z,8.99
2018-12-19T17:46:37.504Z,8.96
2018-12-19T17:49:06.388Z,8.94
2018-12-19T17:51:35.207Z,8.90
2018-12-19T17:54:04.018Z,8.87
2018-12-19T17:56:39.656Z,8.84
2018-12-19T17:59:08.451Z,8.82
2018-12-19T18:01:37.233Z,8.82
2018-12-19T18:04:06.023Z,8.84
2018-12-19T18:06:35.335Z,8.85
2018-12-19T18:09:05.289Z,8.83
2018-12-19T18:11:34.140Z,8.80
2018-12-19T18:14:02.967Z,8.81
2018-12-19T18:16:31.753Z,8.83
2018-12-19T18:19:00.539Z,8.85
2018-12-19T18:21:29.392Z,8.87
2018-12-19T18:23:58.200Z,8.88
2018-12-19T18:26:27.082Z,8.90
2018-12-19T18:28:55.959Z,8.91
2018-12-19T18:31:24.875Z,8.91
2018-12-19T18:33:53.674Z,8.91
2018-12-19T18:36:22.470Z,8.93
2018-12-19T18:38:51.260Z,8.93
2018-12-19T18:41:20.066Z,8.94
2018-12-19T18:43:48.872Z,8.97
2018-12-19T18:46:17.660Z,8.98
2018-12-19T18:48:46.460Z,8.98
2018-12-19T18:51:15.238Z,9.00
2018-12-19T18:53:44.710Z,8.99
2018-12-19T18:56:13.520Z,9.01
2018-12-19T18:58:42.329Z,9.03
2018-12-19T19:01:11.155Z,9.03
2018-12-19T19:03:39.938Z,9.05
2018-12-19T19:06:08.815Z,9.04
2018-12-19T19:08:37.588Z,9.03
2018-12-19T19:11:06.337Z,9.04
2018-12-19T19:13:35.137Z,9.04
2018-12-19T19:16:04.048Z,9.02
2018-12-19T19:18:32.876Z,9.00
2018-12-19T19:21:01.687Z,8.96
2018-12-19T19:23:30.499Z,8.89
2018-12-19T19:25:59.292Z,8.84
2018-12-19T19:28:28.103Z,8.76
2018-12-19T19:30:56.916Z,8.68
2018-12-19T19:33:25.730Z,8.63
2018-12-19T19:35:54.519Z,8.64
2018-12-19T19:38:23.399Z,8.68
2018-12-19T19:40:52.253Z,8.66
2018-12-19T19:43:26.501Z,8.63
2018-12-19T19:45:49.824Z,8.56
2018-12-19T19:48:18.637Z,8.50
2018-12-19T19:50:47.501Z,8.44
2018-12-19T19:53:16.343Z,8.38
2018-12-19T19:55:45.151Z,8.33
2018-12-19T19:58:13.956Z,8.27
2018-12-19T20:00:42.763Z,8.22
2018-12-19T20:03:11.547Z,8.16
2018-12-19T20:05:40.397Z,8.09
2018-12-19T20:08:10.985Z,8.27
2018-12-19T20:10:39.878Z,8.10
2018-12-19T20:13:08.686Z,8.03
2018-12-19T20:15:38.264Z,7.97
2018-12-19T20:18:09.136Z,7.93
2018-12-19T20:20:37.915Z,7.89
2018-12-19T20:23:06.721Z,7.85
2018-12-19T20:25:35.530Z,7.82
2018-12-19T20:28:04.363Z,7.78
2018-12-19T20:30:33.172Z,7.74
2018-12-19T20:33:01.984Z,7.70
2018-12-19T20:35:30.777Z,7.66
2018-12-19T20:37:59.564Z,7.63
2018-12-19T20:40:28.367Z,7.58
2018-12-19T20:42:57.216Z,7.58
2018-12-19T20:45:26.006Z,7.55
2018-12-19T20:47:56.584Z,7.52
2018-12-19T20:50:25.376Z,7.48
2018-12-19T20:52:54.174Z,7.46
2018-12-19T20:55:23.011Z,7.43
2018-12-19T20:57:51.795Z,7.40
2018-12-19T21:00:20.630Z,7.38
2018-12-19T21:02:49.386Z,7.34
2018-12-19T21:05:18.171Z,7.32
2018-12-19T21:07:46.939Z,7.30
2018-12-19T21:10:15.727Z,7.28
2018-12-19T21:12:44.515Z,7.26
2018-12-19T21:15:14.123Z,7.23
2018-12-19T21:17:48.395Z,7.23
2018-12-19T21:20:17.187Z,7.24
2018-12-19T21:22:45.971Z,7.26
2018-12-19T21:25:14.751Z,7.26
2018-12-19T21:27:43.542Z,7.24
2018-12-19T21:30:12.331Z,7.22
2018-12-19T21:32:41.205Z,7.19
2018-12-19T21:35:10.015Z,7.17
2018-12-19T21:37:38.845Z,7.20
2018-12-19T21:40:07.657Z,7.24
2018-12-19T21:42:36.403Z,7.27
2018-12-19T21:45:05.297Z,7.30
2018-12-19T21:47:34.118Z,7.35
2018-12-19T21:50:02.906Z,7.38
2018-12-19T21:52:31.683Z,7.34
2018-12-19T21:55:01.110Z,7.32
2018-12-19T21:57:29.954Z,7.29
2018-12-19T21:59:58.810Z,7.25
2018-12-19T22:02:27.557Z,7.21
2018-12-19T22:04:56.299Z,7.18
2018-12-19T22:07:25.176Z,7.13
2018-12-19T22:09:54.047Z,7.10
2018-12-19T22:12:22.811Z,7.08
2018-12-19T22:14:51.680Z,7.06
2018-12-19T22:17:25.694Z,7.03
2018-12-19T22:19:54.448Z,7.01
2018-12-19T22:22:23.382Z,6.99
2018-12-19T22:24:52.134Z,6.97
2018-12-19T22:27:20.900Z,6.94
2018-12-19T22:29:49.695Z,6.93
2018-12-19T22:32:18.464Z,6.89
2018-12-19T22:34:47.296Z,6.87
2018-12-19T22:37:17.273Z,6.84
2018-12-19T22:39:45.993Z,6.83
2018-12-19T22:42:15.490Z,6.81
2018-12-19T22:44:44.262Z,6.79
2018-12-19T22:47:13.113Z,6.78
2018-12-19T22:49:41.862Z,6.80
2018-12-19T22:52:10.655Z,6.79
2018-12-19T22:54:39.456Z,6.79
2018-12-19T22:57:08.992Z,6.80
2018-12-19T22:59:37.788Z,6.81
2018-12-19T23:02:12.752Z,6.80
2018-12-19T23:04:41.528Z,6.80
2018-12-19T23:07:10.341Z,6.79
2018-12-19T23:09:39.176Z,6.80
2018-12-19T23:12:07.987Z,6.78
2018-12-19T23:14:36.763Z,6.74
2018-12-19T23:17:16.638Z,6.72
2018-12-19T23:19:51.204Z,6.70
2018-12-19T23:22:25.693Z,6.67
2018-12-19T23:25:00.928Z,6.64
2018-12-19T23:27:30.299Z,6.62
2018-12-19T23:29:59.411Z,6.59
2018-12-19T23:32:29.226Z,6.53
2018-12-19T23:34:57.991Z,6.48
2018-12-19T23:37:26.751Z,6.45
2018-12-19T23:39:56.211Z,6.42
2018-12-19T23:42:25.112Z,6.38
2018-12-19T23:44:53.862Z,6.38
2018-12-19T23:47:22.817Z,6.36
2018-12-19T23:49:51.532Z,6.34
2018-12-19T23:52:20.328Z,6.31
2018-12-19T23:54:49.892Z,6.34
2018-12-19T23:57:18.727Z,6.39
2018-12-19T23:59:47.515Z,6.43
